Map

Track Data

SID SEASON NUMBER BASIN SUBBASIN NAME ISO_TIME NATURE LAT LON WMO_WIND WMO_PRES WMO_AGENCY TRACK_TYPE DIST2LAND LANDFALL IFLAG USA_AGENCY USA_ATCF_ID USA_LAT USA_LON USA_RECORD USA_STATUS USA_WIND USA_PRES USA_SSHS USA_R34_NE USA_R34_SE USA_R34_SW USA_R34_NW USA_R50_NE USA_R50_SE USA_R50_SW USA_R50_NW USA_R64_NE USA_R64_SE USA_R64_SW USA_R64_NW USA_POCI USA_ROCI USA_RMW USA_EYE TOKYO_LAT TOKYO_LON TOKYO_GRADE TOKYO_WIND TOKYO_PRES TOKYO_R50_DIR TOKYO_R50_LONG TOKYO_R50_SHORT TOKYO_R30_DIR TOKYO_R30_LONG TOKYO_R30_SHORT TOKYO_LAND CMA_LAT CMA_LON CMA_CAT CMA_WIND CMA_PRES HKO_LAT HKO_LON HKO_CAT HKO_WIND HKO_PRES NEWDELHI_LAT NEWDELHI_LON NEWDELHI_GRADE NEWDELHI_WIND NEWDELHI_PRES NEWDELHI_CI NEWDELHI_DP NEWDELHI_POCI REUNION_LAT REUNION_LON REUNION_TYPE REUNION_WIND REUNION_PRES REUNION_TNUM REUNION_CI REUNION_RMW REUNION_R34_NE REUNION_R34_SE REUNION_R34_SW REUNION_R34_NW REUNION_R50_NE REUNION_R50_SE REUNION_R50_SW REUNION_R50_NW REUNION_R64_NE REUNION_R64_SE REUNION_R64_SW REUNION_R64_NW BOM_LAT BOM_LON BOM_TYPE BOM_WIND BOM_PRES BOM_TNUM BOM_CI BOM_RMW BOM_R34_NE BOM_R34_SE BOM_R34_SW BOM_R34_NW BOM_R50_NE BOM_R50_SE BOM_R50_SW BOM_R50_NW BOM_R64_NE BOM_R64_SE BOM_R64_SW BOM_R64_NW BOM_ROCI BOM_POCI BOM_EYE BOM_POS_METHOD BOM_PRES_METHOD NADI_LAT NADI_LON NADI_CAT NADI_WIND NADI_PRES WELLINGTON_LAT WELLINGTON_LON WELLINGTON_WIND WELLINGTON_PRES DS824_LAT DS824_LON DS824_STAGE DS824_WIND DS824_PRES TD9636_LAT TD9636_LON TD9636_STAGE TD9636_WIND TD9636_PRES TD9635_LAT TD9635_LON TD9635_WIND TD9635_PRES TD9635_ROCI NEUMANN_LAT NEUMANN_LON NEUMANN_CLASS NEUMANN_WIND NEUMANN_PRES MLC_LAT MLC_LON MLC_CLASS MLC_WIND MLC_PRES USA_GUST BOM_GUST BOM_GUST_PER REUNION_GUST REUNION_GUST_PER USA_SEAHGT USA_SEARAD_NE USA_SEARAD_SE USA_SEARAD_SW USA_SEARAD_NW STORM_SPEED STORM_DIR
2020214N21128 2020 21 WP MM HAGUPIT 2020-08-01 06:00:00 NR 20.9000 127.900 PROVISIONAL 649 629 O_____________ tcvitals WP032020 20.9000 127.900 29 1004 -1 1008 126 45 15 320
2020214N21128 2020 21 WP MM HAGUPIT 2020-08-01 09:00:00 NR 21.4880 127.374 PROVISIONAL 635 580 P_____________ WP032020 21.4880 127.374 29 1004 -1 1008 126 45 14 317
2020214N21128 2020 21 WP MM HAGUPIT 2020-08-01 12:00:00 NR 21.9000 126.900 PROVISIONAL 580 537 O_____________ tcvitals WP032020 21.9000 126.900 29 1005 -1 1008 126 45 10 304
2020214N21128 2020 21 WP MM HAGUPIT 2020-08-01 15:00:00 NR 22.0371 126.507 PROVISIONAL 537 495 P_____________ WP032020 22.0371 126.507 29 1004 -1 1007 135 45 8 285
2020214N21128 2020 21 WP MM HAGUPIT 2020-08-01 18:00:00 NR 22.1000 126.100 PROVISIONAL 495 439 O_____________ tcvitals WP032020 22.1000 126.100 29 1004 -1 1007 145 45 10 287
2020214N21128 2020 21 WP MM HAGUPIT 2020-08-01 21:00:00 NR 22.3204 125.520 PROVISIONAL 429 372 P_____________ WP032020 22.3204 125.520 32 1004 -1 1007 155 45 11 296
2020214N21128 2020 21 WP MM HAGUPIT 2020-08-02 00:00:00 NR 22.6000 125.000 PROVISIONAL 372 345 O_____________ tcvitals WP032020 22.6000 125.000 35 1005 0 85 55 25 1008 165 45 9 309
2020214N21128 2020 21 WP MM HAGUPIT 2020-08-02 03:00:00 NR 22.9072 124.747 PROVISIONAL 336 310 P_____________ WP032020 22.9072 124.747 37 1002 0 85 80 32 1007 165 45 7 328
2020214N21128 2020 21 WP MM HAGUPIT 2020-08-02 06:00:00 NR 23.2000 124.600 PROVISIONAL 310 282 O_____________ tcvitals WP032020 23.2000 124.600 39 1000 0 85 105 40 40 1007 165 45 6 326
2020214N21128 2020 21 WP MM HAGUPIT 2020-08-02 09:00:00 NR 23.4000 124.385 PROVISIONAL 282 254 P_____________ WP032020 23.4000 124.385 42 998 0 87 102 47 50 1007 172 37 5 318
2020214N21128 2020 21 WP MM HAGUPIT 2020-08-02 12:00:00 NR 23.6000 124.200 PROVISIONAL 254 232 O_____________ tcvitals WP032020 23.6000 124.200 45 996 0 90 100 55 60 1007 180 30 5 331
2020214N21128 2020 21 WP MM HAGUPIT 2020-08-02 15:00:00 NR 23.8699 124.100 PROVISIONAL 232 215 P_____________ WP032020 23.8699 124.100 48 993 0 90 90 52 62 1006 172 30 6 343
2020214N21128 2020 21 WP MM HAGUPIT 2020-08-02 18:00:00 NR 24.2000 124.000 PROVISIONAL 215 199 O_____________ tcvitals WP032020 24.2000 124.000 51 990 0 90 80 50 65 1005 165 30 7 343
2020214N21128 2020 21 WP MM HAGUPIT 2020-08-02 21:00:00 NR 24.5472 123.867 PROVISIONAL 199 161 P_____________ WP032020 24.5472 123.867 55 986 0 95 90 55 72 1005 157 27 9 335
2020214N21128 2020 21 WP MM HAGUPIT 2020-08-03 00:00:00 NR 25.0000 123.600 PROVISIONAL 161 129 O_____________ tcvitals WP032020 25.0000 123.600 60 983 0 100 100 60 80 1005 150 25 13 328
2020214N21128 2020 21 WP MM HAGUPIT 2020-08-03 03:00:00 NR 25.6730 123.082 PROVISIONAL 135 127 P_____________ WP032020 25.6730 123.082 62 981 0 100 100 60 80 1005 150 15 16 323
2020214N21128 2020 21 WP MM HAGUPIT 2020-08-03 06:00:00 NR 26.3000 122.500 PROVISIONAL 152 146 O_____________ tcvitals WP032020 26.3000 122.500 64 980 1 100 100 60 80 1005 150 5 13 314
2020214N21128 2020 21 WP MM HAGUPIT 2020-08-03 09:00:00 NR 26.5723 122.061 PROVISIONAL 164 126 P_____________ WP032020 26.5723 122.061 69 975 1 105 113 97 80 1005 150 9 9 305
2020214N21128 2020 21 WP MM HAGUPIT 2020-08-03 12:00:00 NR 26.8000 121.700 PROVISIONAL 126 76 O_____________ tcvitals WP032020 26.8000 121.700 74 971 1 110 126 135 80 1005 150 14 9 319
2020214N21128 2020 21 WP MM HAGUPIT 2020-08-03 15:00:00 NR 27.2623 121.385 PROVISIONAL 72 22 P_____________ WP032020 27.2623 121.385 72 972 1 112 115 110 85 1004 147 14 11 332
2020214N21128 2020 21 WP MM HAGUPIT 2020-08-03 18:00:00 NR 27.8000 121.100 PROVISIONAL 22 0 O_____________ tcvitals WP032020 27.8000 121.100 70 974 1 115 105 85 90 1004 145 14 12 332
2020214N21128 2020 21 WP MM HAGUPIT 2020-08-03 21:00:00 NR 28.3001 120.770 PROVISIONAL 0 0 P_____________ WP032020 28.3001 120.770 57 981 0 102 87 70 75 1003 117 19 11 332
2020214N21128 2020 21 WP MM HAGUPIT 2020-08-04 00:00:00 NR 28.8000 120.500 PROVISIONAL 0 0 O_____________ tcvitals WP032020 28.8000 120.500 45 989 0 90 70 55 60 1002 90 25 11 340
2020214N21128 2020 21 WP MM HAGUPIT 2020-08-04 03:00:00 NR 29.2999 120.362 PROVISIONAL 0 0 P_____________ WP032020 29.2999 120.362 37 991 0 45 35 27 30 1001 100 27 10 350
2020214N21128 2020 21 WP MM HAGUPIT 2020-08-04 06:00:00 NR 29.8000 120.300 PROVISIONAL 0 0 O_____________ tcvitals WP032020 29.8000 120.300 29 993 -1 1001 110 30 10 353
2020214N21128 2020 21 WP MM HAGUPIT 2020-08-04 09:00:00 NR 30.2850 120.228 PROVISIONAL 0 0 P_____________ WP032020 30.2850 120.228 27 994 -1 1001 102 35 10 355
2020214N21128 2020 21 WP MM HAGUPIT 2020-08-04 12:00:00 NR 30.8000 120.200 PROVISIONAL 0 0 O_____________ tcvitals WP032020 30.8000 120.200 25 995 -1 1001 95 40 10 360
2020214N21128 2020 21 WP MM HAGUPIT 2020-08-04 15:00:00 NR 31.3175 120.206 PROVISIONAL 0 0 P_____________ WP032020 31.3175 120.206 25 997 -1 1001 95 35 12 4
2020214N21128 2020 21 WP MM HAGUPIT 2020-08-04 18:00:00 NR 32.0000 120.300 PROVISIONAL 0 0 O_____________ tcvitals WP032020 32.0000 120.300 25 1000 -1 1001 95 30 18 8
2020214N21128 2020 21 WP MM HAGUPIT 2020-08-04 21:00:00 NR 33.0651 120.511 PROVISIONAL 0 0 P_____________ WP032020 33.0651 120.511 22 1001 -1 1002 102 30 21 11
2020214N21128 2020 21 WP MM HAGUPIT 2020-08-05 00:00:00 NR 34.1000 120.800 PROVISIONAL 45 45 O_____________ tcvitals WP032020 34.1000 120.800 19 1002 -1 1004 110 30 17 15
2020214N21128 2020 21 WP MM HAGUPIT 2020-08-05 03:00:00 NR 34.6743 121.035 PROVISIONAL 78 78 P_____________ WP032020 34.6743 121.035 19 1000 -1 1003 95 30 11 26
2020214N21128 2020 21 WP MM HAGUPIT 2020-08-05 06:00:00 NR 35.1000 121.400 PROVISIONAL 128 119 O_____________ tcvitals WP032020 35.1000 121.400 19 998 -1 1002 80 30 12 41
2020214N21128 2020 21 WP MM HAGUPIT 2020-08-05 09:00:00 NR 35.6141 122.019 PROVISIONAL 127 80 P_____________ WP032020 35.6141 122.019 19 998 -1 1002 85 30 16 46
2020214N21128 2020 21 WP MM HAGUPIT 2020-08-05 12:00:00 NR 36.2000 122.800 PROVISIONAL 80 O_____________ tcvitals WP032020 36.2000 122.800 19 998 -1 1003 90 30 17 47

Digital Typhoon Data and Search

About IBTrACS Database

This database is a web-friendly format of International Best Track Archive for Climate Stewardship (IBTrACS), a global best track data archive curated by NOAA dating back to 1842.

Updated: 2021-10-25